sensor_id;sensor_type;location;lat;lon;timestamp;P1;durP1;ratioP1;P2;durP2;ratioP2
80788;SDS011;70191;51.114;8.678;2023-06-05T00:01:32;17.10;;;16.10;;
80788;SDS011;70191;51.114;8.678;2023-06-05T00:03:59;16.63;;;15.73;;
80788;SDS011;70191;51.114;8.678;2023-06-05T00:06:24;16.27;;;15.38;;
80788;SDS011;70191;51.114;8.678;2023-06-05T00:08:50;17.35;;;16.45;;
80788;SDS011;70191;51.114;8.678;2023-06-05T00:11:16;17.60;;;16.60;;
80788;SDS011;70191;51.114;8.678;2023-06-05T00:13:41;16.63;;;15.73;;
80788;SDS011;70191;51.114;8.678;2023-06-05T00:16:07;17.35;;;16.35;;
80788;SDS011;70191;51.114;8.678;2023-06-05T00:18:33;16.92;;;15.95;;
80788;SDS011;70191;51.114;8.678;2023-06-05T00:20:58;16.55;;;15.60;;
80788;SDS011;70191;51.114;8.678;2023-06-05T00:23:24;16.45;;;15.55;;
80788;SDS011;70191;51.114;8.678;2023-06-05T00:25:50;16.75;;;15.77;;
80788;SDS011;70191;51.114;8.678;2023-06-05T00:28:15;17.20;;;16.25;;
80788;SDS011;70191;51.114;8.678;2023-06-05T00:30:41;17.45;;;16.48;;
80788;SDS011;70191;51.114;8.678;2023-06-05T00:33:06;17.52;;;16.52;;
80788;SDS011;70191;51.114;8.678;2023-06-05T00:35:32;17.02;;;16.05;;
80788;SDS011;70191;51.114;8.678;2023-06-05T00:37:58;16.90;;;15.90;;
80788;SDS011;70191;51.114;8.678;2023-06-05T00:40:23;16.65;;;15.73;;
80788;SDS011;70191;51.114;8.678;2023-06-05T00:42:49;16.80;;;15.80;;
80788;SDS011;70191;51.114;8.678;2023-06-05T00:45:14;16.75;;;15.85;;
80788;SDS011;70191;51.114;8.678;2023-06-05T00:47:40;17.83;;;16.83;;
80788;SDS011;70191;51.114;8.678;2023-06-05T00:50:06;17.67;;;16.67;;
80788;SDS011;70191;51.114;8.678;2023-06-05T00:52:32;17.23;;;16.23;;
80788;SDS011;70191;51.114;8.678;2023-06-05T00:54:59;16.83;;;15.93;;
80788;SDS011;70191;51.114;8.678;2023-06-05T00:57:26;17.15;;;16.15;;
80788;SDS011;70191;51.114;8.678;2023-06-05T00:59:53;18.00;;;17.00;;
80788;SDS011;70191;51.114;8.678;2023-06-05T01:02:18;17.30;;;16.30;;
80788;SDS011;70191;51.114;8.678;2023-06-05T01:04:44;17.52;;;16.52;;
80788;SDS011;70191;51.114;8.678;2023-06-05T01:07:11;16.88;;;15.98;;
80788;SDS011;70191;51.114;8.678;2023-06-05T01:09:39;17.13;;;16.23;;
80788;SDS011;70191;51.114;8.678;2023-06-05T01:12:11;16.83;;;15.82;;
80788;SDS011;70191;51.114;8.678;2023-06-05T01:14:41;17.02;;;16.02;;
80788;SDS011;70191;51.114;8.678;2023-06-05T01:17:11;17.65;;;16.65;;
80788;SDS011;70191;51.114;8.678;2023-06-05T01:19:38;17.38;;;16.27;;
80788;SDS011;70191;51.114;8.678;2023-06-05T01:22:04;17.15;;;16.25;;
80788;SDS011;70191;51.114;8.678;2023-06-05T01:24:33;16.80;;;15.73;;
80788;SDS011;70191;51.114;8.678;2023-06-05T01:32:27;17.05;;;16.15;;
80788;SDS011;70191;51.114;8.678;2023-06-05T01:35:02;17.38;;;16.38;;
80788;SDS011;70191;51.114;8.678;2023-06-05T01:40:02;16.70;;;15.80;;
80788;SDS011;70191;51.114;8.678;2023-06-05T01:42:31;17.52;;;16.33;;
80788;SDS011;70191;51.114;8.678;2023-06-05T01:44:57;17.33;;;16.33;;
80788;SDS011;70191;51.114;8.678;2023-06-05T01:47:24;16.85;;;15.95;;
80788;SDS011;70191;51.114;8.678;2023-06-05T01:49:49;16.33;;;15.43;;
80788;SDS011;70191;51.114;8.678;2023-06-05T01:52:15;17.13;;;16.13;;
80788;SDS011;70191;51.114;8.678;2023-06-05T01:54:40;17.33;;;16.33;;
80788;SDS011;70191;51.114;8.678;2023-06-05T01:57:07;17.63;;;16.52;;
80788;SDS011;70191;51.114;8.678;2023-06-05T01:59:34;17.33;;;16.33;;
80788;SDS011;70191;51.114;8.678;2023-06-05T02:02:00;16.48;;;15.57;;
80788;SDS011;70191;51.114;8.678;2023-06-05T02:04:25;16.77;;;15.88;;
80788;SDS011;70191;51.114;8.678;2023-06-05T02:06:52;17.20;;;16.20;;
80788;SDS011;70191;51.114;8.678;2023-06-05T02:09:18;16.88;;;15.82;;
80788;SDS011;70191;51.114;8.678;2023-06-05T02:11:44;17.73;;;16.73;;
80788;SDS011;70191;51.114;8.678;2023-06-05T02:14:13;16.98;;;16.08;;
80788;SDS011;70191;51.114;8.678;2023-06-05T02:16:40;16.77;;;15.88;;
80788;SDS011;70191;51.114;8.678;2023-06-05T02:19:07;17.70;;;16.70;;
80788;SDS011;70191;51.114;8.678;2023-06-05T02:21:32;16.92;;;16.02;;
80788;SDS011;70191;51.114;8.678;2023-06-05T02:24:04;17.38;;;16.38;;
80788;SDS011;70191;51.114;8.678;2023-06-05T02:26:30;16.73;;;15.82;;
80788;SDS011;70191;51.114;8.678;2023-06-05T02:28:56;16.30;;;15.40;;
80788;SDS011;70191;51.114;8.678;2023-06-05T02:31:23;16.05;;;15.15;;
80788;SDS011;70191;51.114;8.678;2023-06-05T02:33:50;16.48;;;15.57;;
80788;SDS011;70191;51.114;8.678;2023-06-05T02:36:17;17.80;;;16.80;;
80788;SDS011;70191;51.114;8.678;2023-06-05T02:38:43;17.02;;;16.13;;
80788;SDS011;70191;51.114;8.678;2023-06-05T02:41:09;16.58;;;15.68;;
80788;SDS011;70191;51.114;8.678;2023-06-05T02:43:35;18.10;;;17.10;;
80788;SDS011;70191;51.114;8.678;2023-06-05T02:46:00;16.70;;;15.80;;
80788;SDS011;70191;51.114;8.678;2023-06-05T02:48:26;16.33;;;15.43;;
80788;SDS011;70191;51.114;8.678;2023-06-05T02:50:52;17.33;;;16.40;;
80788;SDS011;70191;51.114;8.678;2023-06-05T02:53:17;16.48;;;15.57;;
80788;SDS011;70191;51.114;8.678;2023-06-05T02:55:43;17.13;;;16.23;;
80788;SDS011;70191;51.114;8.678;2023-06-05T02:58:09;17.05;;;16.15;;
80788;SDS011;70191;51.114;8.678;2023-06-05T03:00:37;18.23;;;17.23;;
80788;SDS011;70191;51.114;8.678;2023-06-05T03:03:03;16.83;;;15.82;;
80788;SDS011;70191;51.114;8.678;2023-06-05T03:05:31;18.40;;;17.30;;
80788;SDS011;70191;51.114;8.678;2023-06-05T03:07:57;16.60;;;15.70;;
80788;SDS011;70191;51.114;8.678;2023-06-05T03:10:22;17.48;;;16.48;;
80788;SDS011;70191;51.114;8.678;2023-06-05T03:12:48;16.40;;;15.50;;
80788;SDS011;70191;51.114;8.678;2023-06-05T03:15:14;16.98;;;16.08;;
80788;SDS011;70191;51.114;8.678;2023-06-05T03:17:40;16.70;;;15.80;;
80788;SDS011;70191;51.114;8.678;2023-06-05T03:20:06;17.52;;;16.60;;
80788;SDS011;70191;51.114;8.678;2023-06-05T03:22:34;16.98;;;15.98;;
80788;SDS011;70191;51.114;8.678;2023-06-05T03:24:59;17.92;;;16.92;;
80788;SDS011;70191;51.114;8.678;2023-06-05T03:27:26;16.80;;;15.90;;
80788;SDS011;70191;51.114;8.678;2023-06-05T03:29:51;17.50;;;16.50;;
80788;SDS011;70191;51.114;8.678;2023-06-05T03:32:17;17.10;;;16.13;;
80788;SDS011;70191;51.114;8.678;2023-06-05T03:34:43;17.13;;;16.23;;
80788;SDS011;70191;51.114;8.678;2023-06-05T03:37:13;17.05;;;16.15;;
80788;SDS011;70191;51.114;8.678;2023-06-05T03:39:39;17.13;;;16.20;;
80788;SDS011;70191;51.114;8.678;2023-06-05T03:42:05;16.92;;;15.88;;
80788;SDS011;70191;51.114;8.678;2023-06-05T03:44:34;16.70;;;15.70;;
80788;SDS011;70191;51.114;8.678;2023-06-05T03:46:59;16.50;;;15.60;;
80788;SDS011;70191;51.114;8.678;2023-06-05T03:49:25;16.73;;;15.82;;
80788;SDS011;70191;51.114;8.678;2023-06-05T03:51:51;16.85;;;15.95;;
80788;SDS011;70191;51.114;8.678;2023-06-05T03:54:17;16.75;;;15.85;;
80788;SDS011;70191;51.114;8.678;2023-06-05T03:56:43;17.05;;;16.15;;
80788;SDS011;70191;51.114;8.678;2023-06-05T03:59:14;16.67;;;15.77;;
80788;SDS011;70191;51.114;8.678;2023-06-05T04:01:45;16.70;;;15.80;;
80788;SDS011;70191;51.114;8.678;2023-06-05T04:04:10;16.27;;;15.43;;
80788;SDS011;70191;51.114;8.678;2023-06-05T04:06:36;16.50;;;15.60;;
80788;SDS011;70191;51.114;8.678;2023-06-05T04:09:05;17.52;;;16.52;;
80788;SDS011;70191;51.114;8.678;2023-06-05T04:11:36;17.55;;;16.55;;
80788;SDS011;70191;51.114;8.678;2023-06-05T04:14:04;17.55;;;16.63;;
80788;SDS011;70191;51.114;8.678;2023-06-05T04:16:29;17.92;;;16.88;;
80788;SDS011;70191;51.114;8.678;2023-06-05T04:18:55;17.92;;;16.92;;
80788;SDS011;70191;51.114;8.678;2023-06-05T04:21:21;17.13;;;16.23;;
80788;SDS011;70191;51.114;8.678;2023-06-05T04:23:46;17.60;;;16.60;;
80788;SDS011;70191;51.114;8.678;2023-06-05T04:26:12;17.45;;;16.25;;
80788;SDS011;70191;51.114;8.678;2023-06-05T04:28:42;17.88;;;16.77;;
80788;SDS011;70191;51.114;8.678;2023-06-05T04:31:08;18.13;;;17.13;;
80788;SDS011;70191;51.114;8.678;2023-06-05T04:33:34;17.60;;;16.60;;
80788;SDS011;70191;51.114;8.678;2023-06-05T04:36:00;17.60;;;16.60;;
80788;SDS011;70191;51.114;8.678;2023-06-05T04:38:26;18.08;;;17.08;;
80788;SDS011;70191;51.114;8.678;2023-06-05T04:40:52;17.80;;;16.80;;
80788;SDS011;70191;51.114;8.678;2023-06-05T04:43:18;17.83;;;16.83;;
80788;SDS011;70191;51.114;8.678;2023-06-05T04:45:44;17.42;;;16.52;;
80788;SDS011;70191;51.114;8.678;2023-06-05T04:48:10;17.52;;;16.60;;
80788;SDS011;70191;51.114;8.678;2023-06-05T04:50:36;17.90;;;16.90;;
80788;SDS011;70191;51.114;8.678;2023-06-05T04:53:02;18.05;;;17.05;;
80788;SDS011;70191;51.114;8.678;2023-06-05T04:55:28;18.30;;;17.30;;
80788;SDS011;70191;51.114;8.678;2023-06-05T04:57:53;18.52;;;17.52;;
80788;SDS011;70191;51.114;8.678;2023-06-05T05:00:19;18.40;;;17.40;;
80788;SDS011;70191;51.114;8.678;2023-06-05T05:02:45;17.92;;;16.92;;
80788;SDS011;70191;51.114;8.678;2023-06-05T05:05:10;17.80;;;16.80;;
80788;SDS011;70191;51.114;8.678;2023-06-05T05:07:39;17.25;;;16.35;;
80788;SDS011;70191;51.114;8.678;2023-06-05T05:10:06;16.85;;;15.95;;
80788;SDS011;70191;51.114;8.678;2023-06-05T05:12:33;17.15;;;16.20;;
80788;SDS011;70191;51.114;8.678;2023-06-05T05:14:59;16.77;;;15.88;;
80788;SDS011;70191;51.114;8.678;2023-06-05T05:17:24;17.10;;;16.20;;
80788;SDS011;70191;51.114;8.678;2023-06-05T05:19:50;17.00;;;16.10;;
80788;SDS011;70191;51.114;8.678;2023-06-05T05:22:16;16.95;;;16.05;;
80788;SDS011;70191;51.114;8.678;2023-06-05T05:24:42;17.70;;;16.70;;
80788;SDS011;70191;51.114;8.678;2023-06-05T05:27:07;16.60;;;15.70;;
80788;SDS011;70191;51.114;8.678;2023-06-05T05:29:33;16.65;;;15.75;;
80788;SDS011;70191;51.114;8.678;2023-06-05T05:31:58;17.30;;;16.20;;
80788;SDS011;70191;51.114;8.678;2023-06-05T05:34:24;16.77;;;15.88;;
80788;SDS011;70191;51.114;8.678;2023-06-05T05:36:50;17.23;;;16.23;;
80788;SDS011;70191;51.114;8.678;2023-06-05T05:39:16;17.02;;;16.13;;
80788;SDS011;70191;51.114;8.678;2023-06-05T05:41:42;17.23;;;16.33;;
80788;SDS011;70191;51.114;8.678;2023-06-05T05:44:08;17.50;;;16.60;;
80788;SDS011;70191;51.114;8.678;2023-06-05T05:46:33;17.33;;;16.33;;
80788;SDS011;70191;51.114;8.678;2023-06-05T05:48:59;17.08;;;16.17;;
80788;SDS011;70191;51.114;8.678;2023-06-05T05:51:25;20.33;;;17.98;;
80788;SDS011;70191;51.114;8.678;2023-06-05T05:53:50;36.70;;;23.98;;
80788;SDS011;70191;51.114;8.678;2023-06-05T05:56:16;38.20;;;23.88;;
80788;SDS011;70191;51.114;8.678;2023-06-05T05:58:42;24.20;;;20.52;;
80788;SDS011;70191;51.114;8.678;2023-06-05T06:01:09;23.20;;;20.77;;
80788;SDS011;70191;51.114;8.678;2023-06-05T06:03:36;24.02;;;21.40;;
80788;SDS011;70191;51.114;8.678;2023-06-05T06:06:02;22.83;;;20.73;;
80788;SDS011;70191;51.114;8.678;2023-06-05T06:08:31;26.27;;;21.00;;
80788;SDS011;70191;51.114;8.678;2023-06-05T06:10:58;22.25;;;19.95;;
80788;SDS011;70191;51.114;8.678;2023-06-05T06:13:24;21.88;;;19.92;;
80788;SDS011;70191;51.114;8.678;2023-06-05T06:15:50;22.88;;;20.73;;
80788;SDS011;70191;51.114;8.678;2023-06-05T06:18:15;22.55;;;20.30;;
80788;SDS011;70191;51.114;8.678;2023-06-05T06:20:41;22.70;;;20.52;;
80788;SDS011;70191;51.114;8.678;2023-06-05T06:23:06;22.00;;;20.00;;
80788;SDS011;70191;51.114;8.678;2023-06-05T06:25:32;23.60;;;20.85;;
80788;SDS011;70191;51.114;8.678;2023-06-05T06:27:58;23.90;;;21.08;;
80788;SDS011;70191;51.114;8.678;2023-06-05T06:30:25;25.40;;;20.42;;
80788;SDS011;70191;51.114;8.678;2023-06-05T06:32:51;22.90;;;20.90;;
80788;SDS011;70191;51.114;8.678;2023-06-05T06:35:17;24.42;;;20.80;;
80788;SDS011;70191;51.114;8.678;2023-06-05T06:37:44;21.60;;;20.05;;
80788;SDS011;70191;51.114;8.678;2023-06-05T06:40:10;21.38;;;19.73;;
80788;SDS011;70191;51.114;8.678;2023-06-05T06:42:39;21.48;;;19.70;;
80788;SDS011;70191;51.114;8.678;2023-06-05T06:45:05;30.67;;;21.73;;
80788;SDS011;70191;51.114;8.678;2023-06-05T06:47:31;24.95;;;20.55;;
80788;SDS011;70191;51.114;8.678;2023-06-05T06:49:57;22.52;;;20.75;;
80788;SDS011;70191;51.114;8.678;2023-06-05T06:52:23;22.23;;;20.42;;
80788;SDS011;70191;51.114;8.678;2023-06-05T06:54:49;21.88;;;19.80;;
80788;SDS011;70191;51.114;8.678;2023-06-05T06:57:14;22.55;;;20.23;;
80788;SDS011;70191;51.114;8.678;2023-06-05T06:59:40;21.58;;;19.55;;
80788;SDS011;70191;51.114;8.678;2023-06-05T07:04:36;21.73;;;20.08;;
80788;SDS011;70191;51.114;8.678;2023-06-05T07:07:02;22.05;;;20.20;;
80788;SDS011;70191;51.114;8.678;2023-06-05T07:09:28;21.50;;;19.80;;
80788;SDS011;70191;51.114;8.678;2023-06-05T07:11:53;22.88;;;20.05;;
80788;SDS011;70191;51.114;8.678;2023-06-05T07:14:19;22.50;;;20.38;;
80788;SDS011;70191;51.114;8.678;2023-06-05T07:16:45;23.05;;;20.75;;
80788;SDS011;70191;51.114;8.678;2023-06-05T07:19:12;22.65;;;20.70;;
80788;SDS011;70191;51.114;8.678;2023-06-05T07:21:38;22.08;;;19.90;;
80788;SDS011;70191;51.114;8.678;2023-06-05T07:24:05;21.88;;;20.25;;
80788;SDS011;70191;51.114;8.678;2023-06-05T07:26:30;22.27;;;20.20;;
80788;SDS011;70191;51.114;8.678;2023-06-05T07:28:57;21.90;;;20.25;;
80788;SDS011;70191;51.114;8.678;2023-06-05T07:31:22;21.92;;;20.00;;
80788;SDS011;70191;51.114;8.678;2023-06-05T07:33:48;21.17;;;19.40;;
80788;SDS011;70191;51.114;8.678;2023-06-05T07:36:13;22.52;;;20.30;;
80788;SDS011;70191;51.114;8.678;2023-06-05T07:38:40;21.45;;;19.85;;
80788;SDS011;70191;51.114;8.678;2023-06-05T07:41:06;20.65;;;19.25;;
80788;SDS011;70191;51.114;8.678;2023-06-05T07:43:33;22.10;;;20.00;;
80788;SDS011;70191;51.114;8.678;2023-06-05T07:45:59;21.65;;;19.85;;
80788;SDS011;70191;51.114;8.678;2023-06-05T07:48:25;20.02;;;18.35;;
80788;SDS011;70191;51.114;8.678;2023-06-05T07:50:51;22.35;;;20.02;;
80788;SDS011;70191;51.114;8.678;2023-06-05T07:53:16;21.15;;;19.45;;
80788;SDS011;70191;51.114;8.678;2023-06-05T07:55:42;20.60;;;19.15;;
80788;SDS011;70191;51.114;8.678;2023-06-05T07:58:08;20.60;;;18.90;;
80788;SDS011;70191;51.114;8.678;2023-06-05T08:00:33;21.90;;;19.90;;
80788;SDS011;70191;51.114;8.678;2023-06-05T08:02:59;21.13;;;19.20;;
80788;SDS011;70191;51.114;8.678;2023-06-05T08:05:25;21.55;;;19.40;;
80788;SDS011;70191;51.114;8.678;2023-06-05T08:07:50;29.27;;;20.08;;
80788;SDS011;70191;51.114;8.678;2023-06-05T08:10:16;26.73;;;19.95;;
80788;SDS011;70191;51.114;8.678;2023-06-05T08:12:42;23.98;;;17.10;;
80788;SDS011;70191;51.114;8.678;2023-06-05T08:15:07;18.83;;;16.73;;
80788;SDS011;70191;51.114;8.678;2023-06-05T08:17:33;47.63;;;18.17;;
80788;SDS011;70191;51.114;8.678;2023-06-05T08:19:59;19.42;;;16.45;;
80788;SDS011;70191;51.114;8.678;2023-06-05T08:22:25;20.50;;;17.02;;
80788;SDS011;70191;51.114;8.678;2023-06-05T08:24:50;20.50;;;17.88;;
80788;SDS011;70191;51.114;8.678;2023-06-05T08:27:18;23.95;;;18.75;;
80788;SDS011;70191;51.114;8.678;2023-06-05T08:29:44;19.80;;;17.92;;
80788;SDS011;70191;51.114;8.678;2023-06-05T08:32:10;29.45;;;18.23;;
80788;SDS011;70191;51.114;8.678;2023-06-05T08:34:35;26.92;;;18.65;;
80788;SDS011;70191;51.114;8.678;2023-06-05T08:37:01;20.67;;;17.60;;
80788;SDS011;70191;51.114;8.678;2023-06-05T08:39:27;19.42;;;17.52;;
80788;SDS011;70191;51.114;8.678;2023-06-05T08:41:57;21.02;;;18.75;;
80788;SDS011;70191;51.114;8.678;2023-06-05T08:44:29;20.55;;;18.63;;
80788;SDS011;70191;51.114;8.678;2023-06-05T08:46:58;24.85;;;19.05;;
80788;SDS011;70191;51.114;8.678;2023-06-05T08:49:26;24.30;;;22.08;;
80788;SDS011;70191;51.114;8.678;2023-06-05T08:52:00;20.75;;;18.88;;
80788;SDS011;70191;51.114;8.678;2023-06-05T08:54:33;23.38;;;19.63;;
80788;SDS011;70191;51.114;8.678;2023-06-05T08:57:05;21.83;;;19.75;;
80788;SDS011;70191;51.114;8.678;2023-06-05T08:59:32;20.55;;;18.80;;
80788;SDS011;70191;51.114;8.678;2023-06-05T09:01:58;20.10;;;18.40;;
80788;SDS011;70191;51.114;8.678;2023-06-05T09:04:24;21.52;;;19.45;;
80788;SDS011;70191;51.114;8.678;2023-06-05T09:06:50;21.08;;;18.95;;
80788;SDS011;70191;51.114;8.678;2023-06-05T09:09:19;20.30;;;18.58;;
80788;SDS011;70191;51.114;8.678;2023-06-05T09:11:45;20.88;;;19.35;;
80788;SDS011;70191;51.114;8.678;2023-06-05T09:14:10;19.40;;;18.00;;
80788;SDS011;70191;51.114;8.678;2023-06-05T09:16:38;18.73;;;17.35;;
80788;SDS011;70191;51.114;8.678;2023-06-05T09:19:06;20.38;;;18.30;;
80788;SDS011;70191;51.114;8.678;2023-06-05T09:21:32;18.73;;;17.38;;
80788;SDS011;70191;51.114;8.678;2023-06-05T09:24:11;21.10;;;19.33;;
80788;SDS011;70191;51.114;8.678;2023-06-05T09:26:54;21.08;;;19.25;;
80788;SDS011;70191;51.114;8.678;2023-06-05T09:29:28;20.10;;;18.80;;
80788;SDS011;70191;51.114;8.678;2023-06-05T09:31:59;20.73;;;19.20;;
80788;SDS011;70191;51.114;8.678;2023-06-05T09:34:26;20.40;;;18.90;;
80788;SDS011;70191;51.114;8.678;2023-06-05T09:36:55;21.13;;;19.42;;
80788;SDS011;70191;51.114;8.678;2023-06-05T09:39:22;20.52;;;19.08;;
80788;SDS011;70191;51.114;8.678;2023-06-05T09:41:52;19.77;;;18.38;;
80788;SDS011;70191;51.114;8.678;2023-06-05T09:44:19;19.77;;;18.38;;
80788;SDS011;70191;51.114;8.678;2023-06-05T09:46:54;20.13;;;18.73;;
80788;SDS011;70191;51.114;8.678;2023-06-05T09:49:29;19.80;;;18.50;;
80788;SDS011;70191;51.114;8.678;2023-06-05T09:51:56;20.38;;;18.80;;
80788;SDS011;70191;51.114;8.678;2023-06-05T09:54:25;20.77;;;19.27;;
80788;SDS011;70191;51.114;8.678;2023-06-05T09:57:01;20.20;;;18.80;;
80788;SDS011;70191;51.114;8.678;2023-06-05T09:59:28;19.75;;;18.45;;
80788;SDS011;70191;51.114;8.678;2023-06-05T10:02:05;20.80;;;19.10;;
80788;SDS011;70191;51.114;8.678;2023-06-05T10:04:37;19.08;;;17.80;;
80788;SDS011;70191;51.114;8.678;2023-06-05T10:07:07;20.15;;;18.38;;
80788;SDS011;70191;51.114;8.678;2023-06-05T10:09:33;20.55;;;18.95;;
80788;SDS011;70191;51.114;8.678;2023-06-05T10:12:00;20.35;;;18.65;;
80788;SDS011;70191;51.114;8.678;2023-06-05T10:14:28;20.42;;;18.92;;
80788;SDS011;70191;51.114;8.678;2023-06-05T10:16:54;19.92;;;18.52;;
80788;SDS011;70191;51.114;8.678;2023-06-05T10:19:22;20.10;;;18.70;;
80788;SDS011;70191;51.114;8.678;2023-06-05T10:21:49;20.75;;;18.88;;
80788;SDS011;70191;51.114;8.678;2023-06-05T10:24:18;19.95;;;18.58;;
80788;SDS011;70191;51.114;8.678;2023-06-05T10:29:55;20.10;;;18.70;;
80788;SDS011;70191;51.114;8.678;2023-06-05T10:32:53;19.92;;;18.52;;
80788;SDS011;70191;51.114;8.678;2023-06-05T10:35:45;19.95;;;18.65;;
80788;SDS011;70191;51.114;8.678;2023-06-05T10:38:23;20.30;;;18.80;;
80788;SDS011;70191;51.114;8.678;2023-06-05T10:40:54;20.65;;;19.25;;
80788;SDS011;70191;51.114;8.678;2023-06-05T10:43:31;20.42;;;18.90;;
80788;SDS011;70191;51.114;8.678;2023-06-05T10:45:57;20.30;;;18.92;;
80788;SDS011;70191;51.114;8.678;2023-06-05T10:51:31;20.98;;;19.38;;
80788;SDS011;70191;51.114;8.678;2023-06-05T10:54:02;20.02;;;18.60;;
80788;SDS011;70191;51.114;8.678;2023-06-05T10:59:23;20.48;;;19.05;;
80788;SDS011;70191;51.114;8.678;2023-06-05T11:07:18;20.48;;;18.83;;
80788;SDS011;70191;51.114;8.678;2023-06-05T11:10:04;19.80;;;18.50;;
80788;SDS011;70191;51.114;8.678;2023-06-05T11:17:33;19.50;;;18.35;;
80788;SDS011;70191;51.114;8.678;2023-06-05T11:28:36;19.40;;;18.15;;
80788;SDS011;70191;51.114;8.678;2023-06-05T11:30:40;19.75;;;18.55;;
80788;SDS011;70191;51.114;8.678;2023-06-05T11:33:10;20.38;;;19.02;;
80788;SDS011;70191;51.114;8.678;2023-06-05T11:35:38;20.15;;;18.80;;
80788;SDS011;70191;51.114;8.678;2023-06-05T11:40:34;20.05;;;18.70;;
80788;SDS011;70191;51.114;8.678;2023-06-05T11:43:18;20.15;;;18.85;;
80788;SDS011;70191;51.114;8.678;2023-06-05T11:45:52;20.30;;;19.00;;
80788;SDS011;70191;51.114;8.678;2023-06-05T11:48:21;19.48;;;17.98;;
80788;SDS011;70191;51.114;8.678;2023-06-05T11:53:21;19.75;;;18.45;;
80788;SDS011;70191;51.114;8.678;2023-06-05T11:55:47;20.25;;;18.95;;
80788;SDS011;70191;51.114;8.678;2023-06-05T11:58:22;19.60;;;18.40;;
80788;SDS011;70191;51.114;8.678;2023-06-05T12:00:52;19.52;;;18.23;;
80788;SDS011;70191;51.114;8.678;2023-06-05T12:03:46;20.55;;;19.02;;
80788;SDS011;70191;51.114;8.678;2023-06-05T12:06:14;20.63;;;19.15;;
80788;SDS011;70191;51.114;8.678;2023-06-05T12:08:42;20.58;;;19.25;;
80788;SDS011;70191;51.114;8.678;2023-06-05T12:11:22;20.00;;;18.70;;
80788;SDS011;70191;51.114;8.678;2023-06-05T12:13:55;19.38;;;18.15;;
80788;SDS011;70191;51.114;8.678;2023-06-05T12:16:31;20.73;;;19.30;;
80788;SDS011;70191;51.114;8.678;2023-06-05T12:18:59;20.33;;;18.92;;
80788;SDS011;70191;51.114;8.678;2023-06-05T12:21:26;20.27;;;18.98;;
80788;SDS011;70191;51.114;8.678;2023-06-05T12:24:00;19.50;;;18.30;;
80788;SDS011;70191;51.114;8.678;2023-06-05T12:26:26;20.23;;;18.92;;
80788;SDS011;70191;51.114;8.678;2023-06-05T12:29:01;19.40;;;18.30;;
80788;SDS011;70191;51.114;8.678;2023-06-05T12:31:36;20.05;;;18.85;;
80788;SDS011;70191;51.114;8.678;2023-06-05T12:34:04;20.02;;;18.63;;
80788;SDS011;70191;51.114;8.678;2023-06-05T12:36:30;19.38;;;18.17;;
80788;SDS011;70191;51.114;8.678;2023-06-05T12:39:02;19.52;;;18.30;;
80788;SDS011;70191;51.114;8.678;2023-06-05T12:41:32;19.83;;;18.40;;
80788;SDS011;70191;51.114;8.678;2023-06-05T12:44:04;20.40;;;18.92;;
80788;SDS011;70191;51.114;8.678;2023-06-05T12:46:30;19.55;;;18.25;;
80788;SDS011;70191;51.114;8.678;2023-06-05T12:48:57;19.90;;;18.60;;
80788;SDS011;70191;51.114;8.678;2023-06-05T12:51:24;20.23;;;18.60;;
80788;SDS011;70191;51.114;8.678;2023-06-05T12:53:51;19.15;;;18.05;;
80788;SDS011;70191;51.114;8.678;2023-06-05T12:56:18;19.60;;;18.40;;
80788;SDS011;70191;51.114;8.678;2023-06-05T12:58:43;19.65;;;18.45;;
80788;SDS011;70191;51.114;8.678;2023-06-05T13:01:09;19.50;;;18.30;;
80788;SDS011;70191;51.114;8.678;2023-06-05T13:03:35;19.85;;;18.55;;
80788;SDS011;70191;51.114;8.678;2023-06-05T13:06:02;20.00;;;18.70;;
80788;SDS011;70191;51.114;8.678;2023-06-05T13:08:28;19.35;;;18.20;;
80788;SDS011;70191;51.114;8.678;2023-06-05T13:10:55;20.30;;;18.90;;
80788;SDS011;70191;51.114;8.678;2023-06-05T13:13:20;19.25;;;18.15;;
80788;SDS011;70191;51.114;8.678;2023-06-05T13:15:46;19.30;;;18.00;;
80788;SDS011;70191;51.114;8.678;2023-06-05T13:18:12;19.30;;;18.20;;
80788;SDS011;70191;51.114;8.678;2023-06-05T13:20:37;19.77;;;18.42;;
80788;SDS011;70191;51.114;8.678;2023-06-05T13:23:03;20.30;;;18.90;;
80788;SDS011;70191;51.114;8.678;2023-06-05T13:25:30;19.88;;;18.67;;
80788;SDS011;70191;51.114;8.678;2023-06-05T13:27:55;19.33;;;18.05;;
80788;SDS011;70191;51.114;8.678;2023-06-05T13:30:21;19.33;;;17.92;;
80788;SDS011;70191;51.114;8.678;2023-06-05T13:32:46;19.20;;;18.00;;
80788;SDS011;70191;51.114;8.678;2023-06-05T13:35:13;19.00;;;17.65;;
80788;SDS011;70191;51.114;8.678;2023-06-05T13:37:38;19.27;;;18.08;;
80788;SDS011;70191;51.114;8.678;2023-06-05T13:40:05;19.70;;;18.30;;
80788;SDS011;70191;51.114;8.678;2023-06-05T13:42:32;18.92;;;17.75;;
80788;SDS011;70191;51.114;8.678;2023-06-05T13:44:58;18.70;;;17.63;;
80788;SDS011;70191;51.114;8.678;2023-06-05T13:47:23;19.70;;;18.33;;
80788;SDS011;70191;51.114;8.678;2023-06-05T13:52:24;19.58;;;17.98;;
80788;SDS011;70191;51.114;8.678;2023-06-05T13:54:50;20.40;;;18.55;;
80788;SDS011;70191;51.114;8.678;2023-06-05T13:57:16;18.80;;;17.70;;
80788;SDS011;70191;51.114;8.678;2023-06-05T13:59:44;19.20;;;18.10;;
80788;SDS011;70191;51.114;8.678;2023-06-05T14:02:10;19.10;;;17.90;;
80788;SDS011;70191;51.114;8.678;2023-06-05T14:04:36;19.20;;;17.92;;
80788;SDS011;70191;51.114;8.678;2023-06-05T14:07:02;19.20;;;18.00;;
80788;SDS011;70191;51.114;8.678;2023-06-05T14:09:28;19.13;;;17.98;;
80788;SDS011;70191;51.114;8.678;2023-06-05T14:11:54;19.08;;;17.98;;
80788;SDS011;70191;51.114;8.678;2023-06-05T14:14:21;19.80;;;18.50;;
80788;SDS011;70191;51.114;8.678;2023-06-05T14:16:48;19.25;;;18.13;;
80788;SDS011;70191;51.114;8.678;2023-06-05T14:19:13;19.38;;;18.17;;
80788;SDS011;70191;51.114;8.678;2023-06-05T14:21:39;19.17;;;18.08;;
80788;SDS011;70191;51.114;8.678;2023-06-05T14:24:06;19.30;;;18.10;;
80788;SDS011;70191;51.114;8.678;2023-06-05T14:26:32;19.20;;;18.10;;
80788;SDS011;70191;51.114;8.678;2023-06-05T14:28:57;19.48;;;18.17;;
80788;SDS011;70191;51.114;8.678;2023-06-05T14:31:23;19.42;;;18.23;;
80788;SDS011;70191;51.114;8.678;2023-06-05T14:33:50;19.67;;;18.48;;
80788;SDS011;70191;51.114;8.678;2023-06-05T14:36:16;19.42;;;18.23;;
80788;SDS011;70191;51.114;8.678;2023-06-05T14:38:41;19.10;;;18.00;;
80788;SDS011;70191;51.114;8.678;2023-06-05T14:41:07;18.77;;;17.67;;
80788;SDS011;70191;51.114;8.678;2023-06-05T14:43:32;19.05;;;17.95;;
80788;SDS011;70191;51.114;8.678;2023-06-05T14:45:58;19.60;;;18.20;;
80788;SDS011;70191;51.114;8.678;2023-06-05T14:48:25;19.23;;;18.02;;
80788;SDS011;70191;51.114;8.678;2023-06-05T14:50:51;19.58;;;18.27;;
80788;SDS011;70191;51.114;8.678;2023-06-05T14:53:17;18.95;;;17.75;;
80788;SDS011;70191;51.114;8.678;2023-06-05T14:55:43;19.80;;;18.60;;
80788;SDS011;70191;51.114;8.678;2023-06-05T14:58:09;19.00;;;17.90;;
80788;SDS011;70191;51.114;8.678;2023-06-05T15:00:35;19.02;;;17.80;;
80788;SDS011;70191;51.114;8.678;2023-06-05T15:03:02;18.70;;;17.60;;
80788;SDS011;70191;51.114;8.678;2023-06-05T15:05:27;19.00;;;17.90;;
80788;SDS011;70191;51.114;8.678;2023-06-05T15:11:15;18.30;;;17.30;;